MST,Max TemperatureF,Mean TemperatureF,Min TemperatureF,Max Dew PointF,MeanDew PointF,Min DewpointF,Max Humidity, Mean Humidity, Min Humidity, Max Sea Level PressureIn, Mean Sea Level PressureIn, Min Sea Level PressureIn, Max VisibilityMiles, Mean VisibilityMiles, Min VisibilityMiles, Max Wind SpeedMPH, Mean Wind SpeedMPH, Max Gust SpeedMPH,PrecipitationIn, CloudCover, Events, WindDirDegrees
2012-12-1,,,,,,,,,,,,,,,,,,,,,,
2012-12-2,,,,,,,,,,,,,,,,,,,,,,
2012-12-3,,,,,,,,,,,,,,,,,,,,,,
2012-12-4,,,,,,,,,,,,,,,,,,,,,,
2012-12-5,44,38,32,32,28,14,87,62,33,30.12,30.01,29.90,10,10,10,34,15,51,0.00,1,,191
2012-12-6,35,30,23,21,20,16,86,63,48,30.02,29.93,29.85,10,10,10,31,11,41,0.00,2,,168
2012-12-7,28,24,19,21,15,1,100,74,34,29.94,29.88,29.76,10,9,0,29,16,31,0.00,4,Fog,244
2012-12-8,24,16,6,16,11,3,93,78,54,29.95,29.74,29.60,10,8,0,45,21,48,0.00,5,Fog-Snow,279
2012-12-9,10,4,3,9,2,0,92,86,85,30.16,30.04,29.89,,,,36,20,39,0.00,8,,206
2012-12-10,23,18,14,16,7,-6,93,67,35,29.94,29.89,29.84,10,8,0,25,8,,0.00,5,Fog-Snow,284
2012-12-11,30,22,14,19,14,9,93,78,59,29.93,29.78,29.68,10,10,4,32,11,52,0.00,1,,156
2012-12-12,32,28,23,19,15,5,86,59,32,29.91,29.74,29.66,10,10,10,44,16,56,0.00,0,,164
2012-12-13,32,26,21,19,17,12,86,68,55,29.93,29.91,29.86,10,10,10,23,14,25,0.00,0,,136
2012-12-14,33,30,26,21,17,14,69,58,44,29.86,29.72,29.62,10,10,7,17,10,,0.00,3,Snow,145
2012-12-15,28,24,21,27,22,10,100,89,54,29.79,29.72,29.65,10,7,0,16,9,,0.00,6,Fog-Snow,274
2012-12-16,30,24,17,18,9,1,93,56,39,29.73,29.67,29.59,10,10,0,25,12,37,0.00,2,Fog,238
2012-12-17,32,24,17,25,11,3,80,59,37,29.67,29.56,29.47,10,10,4,34,17,58,0.00,1,Snow,174
2012-12-18,23,18,12,5,-3,-15,54,40,27,29.76,29.69,29.61,10,10,10,33,22,41,0.00,2,,249
2012-12-19,17,12,8,-6,-10,-17,52,37,23,30.08,29.93,29.75,10,10,10,15,10,,0.00,0,,330
2012-12-20,23,16,8,1,-4,-17,52,40,21,30.16,30.13,30.08,10,10,10,23,12,34,0.00,0,,145
2012-12-21,28,21,14,5,2,0,57,44,34,30.15,30.09,30.05,10,10,10,33,21,36,0.00,0,,129
2012-12-22,28,24,19,7,3,0,50,42,31,30.07,29.96,29.80,10,10,10,31,17,38,0.00,0,,141
2012-12-23,30,26,21,12,7,0,59,44,29,29.99,29.91,29.81,10,10,10,30,18,36,0.00,1,,196
2012-12-24,26,14,0,18,11,-4,100,80,55,30.00,29.81,29.75,10,7,0,31,15,,0.00,5,Fog-Snow,7
2012-12-25,10,5,0,9,2,-6,92,86,78,30.09,30.00,29.84,10,6,0,20,12,,0.00,5,Fog-Snow,182
2012-12-26,12,10,8,10,8,5,92,88,85,29.83,29.66,29.58,10,5,0,26,18,22,0.00,8,Fog-Snow,115
2012-12-27,15,14,12,14,11,9,93,91,85,29.89,29.74,29.61,0,0,0,38,25,,0.00,8,Snow,298
2012-12-28,21,16,12,14,8,0,93,72,39,30.04,29.96,29.88,10,10,10,14,7,16,0.00,3,,200
2012-12-29,14,10,5,7,4,1,92,79,62,30.04,29.98,29.89,10,10,10,26,17,,0.00,0,,134
2012-12-30,19,16,12,3,0,-4,58,49,36,29.97,29.96,29.94,10,10,10,14,8,,0.00,0,,327
2012-12-31,19,14,10,9,4,1,85,67,49,30.02,29.95,29.91,10,10,10,16,8,,0.00,1,,169